sensor_id;sensor_type;location;lat;lon;timestamp;P1;durP1;ratioP1;P2;durP2;ratioP2
77838;SDS011;67034;43.226;27.932;2023-12-28T00:01:13;7.25;;;3.08;;
77838;SDS011;67034;43.226;27.932;2023-12-28T00:03:39;4.30;;;2.70;;
77838;SDS011;67034;43.226;27.932;2023-12-28T00:06:06;3.65;;;2.95;;
77838;SDS011;67034;43.226;27.932;2023-12-28T00:08:32;3.17;;;2.42;;
77838;SDS011;67034;43.226;27.932;2023-12-28T00:10:57;7.70;;;3.30;;
77838;SDS011;67034;43.226;27.932;2023-12-28T00:13:23;4.95;;;2.80;;
77838;SDS011;67034;43.226;27.932;2023-12-28T00:15:49;3.60;;;2.60;;
77838;SDS011;67034;43.226;27.932;2023-12-28T00:18:16;4.10;;;2.70;;
77838;SDS011;67034;43.226;27.932;2023-12-28T00:20:42;4.07;;;2.83;;
77838;SDS011;67034;43.226;27.932;2023-12-28T00:23:08;6.22;;;2.92;;
77838;SDS011;67034;43.226;27.932;2023-12-28T00:25:33;5.40;;;3.03;;
77838;SDS011;67034;43.226;27.932;2023-12-28T00:27:59;4.97;;;3.05;;
77838;SDS011;67034;43.226;27.932;2023-12-28T00:30:25;4.85;;;2.83;;
77838;SDS011;67034;43.226;27.932;2023-12-28T00:32:51;4.38;;;2.70;;
77838;SDS011;67034;43.226;27.932;2023-12-28T00:35:18;5.22;;;2.78;;
77838;SDS011;67034;43.226;27.932;2023-12-28T00:37:44;4.97;;;2.45;;
77838;SDS011;67034;43.226;27.932;2023-12-28T00:40:09;4.32;;;2.65;;
77838;SDS011;67034;43.226;27.932;2023-12-28T00:42:35;3.72;;;2.28;;
77838;SDS011;67034;43.226;27.932;2023-12-28T00:45:01;3.85;;;2.67;;
77838;SDS011;67034;43.226;27.932;2023-12-28T00:47:27;4.45;;;2.90;;
77838;SDS011;67034;43.226;27.932;2023-12-28T00:49:54;3.83;;;2.38;;
77838;SDS011;67034;43.226;27.932;2023-12-28T00:52:21;5.65;;;2.65;;
77838;SDS011;67034;43.226;27.932;2023-12-28T00:54:47;4.93;;;2.50;;
77838;SDS011;67034;43.226;27.932;2023-12-28T00:59:38;4.30;;;2.63;;
77838;SDS011;67034;43.226;27.932;2023-12-28T01:04:29;5.20;;;2.22;;
77838;SDS011;67034;43.226;27.932;2023-12-28T01:09:22;8.20;;;2.63;;
77838;SDS011;67034;43.226;27.932;2023-12-28T01:11:47;3.72;;;2.30;;
77838;SDS011;67034;43.226;27.932;2023-12-28T01:16:39;4.78;;;2.70;;
77838;SDS011;67034;43.226;27.932;2023-12-28T01:19:05;6.20;;;3.50;;
77838;SDS011;67034;43.226;27.932;2023-12-28T01:23:56;3.38;;;2.13;;
77838;SDS011;67034;43.226;27.932;2023-12-28T01:28:48;5.20;;;2.80;;
77838;SDS011;67034;43.226;27.932;2023-12-28T01:31:14;3.53;;;2.47;;
77838;SDS011;67034;43.226;27.932;2023-12-28T01:36:14;5.20;;;2.53;;
77838;SDS011;67034;43.226;27.932;2023-12-28T01:38:41;4.43;;;2.75;;
77838;SDS011;67034;43.226;27.932;2023-12-28T01:41:07;4.07;;;2.65;;
77838;SDS011;67034;43.226;27.932;2023-12-28T01:43:34;5.55;;;2.70;;
77838;SDS011;67034;43.226;27.932;2023-12-28T01:46:00;3.65;;;2.25;;
77838;SDS011;67034;43.226;27.932;2023-12-28T01:50:51;4.85;;;2.45;;
77838;SDS011;67034;43.226;27.932;2023-12-28T01:55:43;4.03;;;2.70;;
77838;SDS011;67034;43.226;27.932;2023-12-28T01:58:09;5.88;;;2.42;;
77838;SDS011;67034;43.226;27.932;2023-12-28T02:00:36;3.20;;;2.30;;
77838;SDS011;67034;43.226;27.932;2023-12-28T02:03:03;5.05;;;2.58;;
77838;SDS011;67034;43.226;27.932;2023-12-28T02:05:30;4.05;;;2.38;;
77838;SDS011;67034;43.226;27.932;2023-12-28T02:07:56;5.78;;;2.65;;
77838;SDS011;67034;43.226;27.932;2023-12-28T02:10:22;4.97;;;2.40;;
77838;SDS011;67034;43.226;27.932;2023-12-28T02:15:15;4.97;;;2.30;;
77838;SDS011;67034;43.226;27.932;2023-12-28T02:17:44;3.20;;;2.30;;
77838;SDS011;67034;43.226;27.932;2023-12-28T02:20:16;4.72;;;3.15;;
77838;SDS011;67034;43.226;27.932;2023-12-28T02:22:44;3.72;;;2.70;;
77838;SDS011;67034;43.226;27.932;2023-12-28T02:25:12;5.03;;;3.30;;
77838;SDS011;67034;43.226;27.932;2023-12-28T02:27:39;4.63;;;2.88;;
77838;SDS011;67034;43.226;27.932;2023-12-28T02:30:06;3.40;;;2.25;;
77838;SDS011;67034;43.226;27.932;2023-12-28T02:32:43;4.05;;;2.83;;
77838;SDS011;67034;43.226;27.932;2023-12-28T02:35:17;4.57;;;2.72;;
77838;SDS011;67034;43.226;27.932;2023-12-28T02:37:47;5.57;;;3.03;;
77838;SDS011;67034;43.226;27.932;2023-12-28T02:40:19;5.60;;;3.13;;
77838;SDS011;67034;43.226;27.932;2023-12-28T02:42:46;7.85;;;3.72;;
77838;SDS011;67034;43.226;27.932;2023-12-28T02:45:12;7.40;;;3.17;;
77838;SDS011;67034;43.226;27.932;2023-12-28T02:47:37;4.32;;;2.63;;
77838;SDS011;67034;43.226;27.932;2023-12-28T02:50:03;4.95;;;2.60;;
77838;SDS011;67034;43.226;27.932;2023-12-28T02:52:30;3.90;;;2.42;;
77838;SDS011;67034;43.226;27.932;2023-12-28T02:57:22;4.85;;;2.63;;
77838;SDS011;67034;43.226;27.932;2023-12-28T02:59:48;4.30;;;2.55;;
77838;SDS011;67034;43.226;27.932;2023-12-28T03:02:14;5.78;;;2.78;;
77838;SDS011;67034;43.226;27.932;2023-12-28T03:07:05;3.42;;;2.47;;
77838;SDS011;67034;43.226;27.932;2023-12-28T03:09:33;4.07;;;2.83;;
77838;SDS011;67034;43.226;27.932;2023-12-28T03:11:59;6.32;;;3.42;;
77838;SDS011;67034;43.226;27.932;2023-12-28T03:14:26;6.05;;;3.30;;
77838;SDS011;67034;43.226;27.932;2023-12-28T03:16:52;6.07;;;3.28;;
77838;SDS011;67034;43.226;27.932;2023-12-28T03:19:18;6.65;;;3.72;;
77838;SDS011;67034;43.226;27.932;2023-12-28T03:24:09;3.97;;;2.60;;
77838;SDS011;67034;43.226;27.932;2023-12-28T03:26:37;3.38;;;2.80;;
77838;SDS011;67034;43.226;27.932;2023-12-28T03:29:03;5.63;;;3.10;;
77838;SDS011;67034;43.226;27.932;2023-12-28T03:31:32;5.68;;;3.40;;
77838;SDS011;67034;43.226;27.932;2023-12-28T03:33:57;6.05;;;3.00;;
77838;SDS011;67034;43.226;27.932;2023-12-28T03:41:17;4.47;;;2.33;;
77838;SDS011;67034;43.226;27.932;2023-12-28T03:43:43;5.18;;;3.13;;
77838;SDS011;67034;43.226;27.932;2023-12-28T03:46:09;4.75;;;2.88;;
77838;SDS011;67034;43.226;27.932;2023-12-28T03:48:37;4.65;;;2.55;;
77838;SDS011;67034;43.226;27.932;2023-12-28T03:51:03;5.20;;;2.75;;
77838;SDS011;67034;43.226;27.932;2023-12-28T03:55:54;3.40;;;2.20;;
77838;SDS011;67034;43.226;27.932;2023-12-28T04:00:45;3.05;;;1.98;;
77838;SDS011;67034;43.226;27.932;2023-12-28T04:03:11;3.70;;;1.80;;
77838;SDS011;67034;43.226;27.932;2023-12-28T04:08:04;3.55;;;2.25;;
77838;SDS011;67034;43.226;27.932;2023-12-28T04:10:31;3.72;;;2.95;;
77838;SDS011;67034;43.226;27.932;2023-12-28T04:12:57;4.45;;;2.60;;
77838;SDS011;67034;43.226;27.932;2023-12-28T04:15:24;7.53;;;2.75;;
77838;SDS011;67034;43.226;27.932;2023-12-28T04:17:49;3.63;;;2.50;;
77838;SDS011;67034;43.226;27.932;2023-12-28T04:20:15;4.30;;;2.42;;
77838;SDS011;67034;43.226;27.932;2023-12-28T04:22:42;3.28;;;2.20;;
77838;SDS011;67034;43.226;27.932;2023-12-28T04:25:08;4.45;;;2.30;;
77838;SDS011;67034;43.226;27.932;2023-12-28T04:27:34;3.97;;;2.65;;
77838;SDS011;67034;43.226;27.932;2023-12-28T04:30:00;5.03;;;2.70;;
77838;SDS011;67034;43.226;27.932;2023-12-28T04:32:25;3.53;;;2.63;;
77838;SDS011;67034;43.226;27.932;2023-12-28T04:34:52;3.70;;;2.53;;
77838;SDS011;67034;43.226;27.932;2023-12-28T04:37:19;4.63;;;2.38;;
77838;SDS011;67034;43.226;27.932;2023-12-28T04:39:46;3.83;;;2.45;;
77838;SDS011;67034;43.226;27.932;2023-12-28T04:42:12;4.82;;;2.40;;
77838;SDS011;67034;43.226;27.932;2023-12-28T04:44:38;5.13;;;2.92;;
77838;SDS011;67034;43.226;27.932;2023-12-28T04:47:04;4.13;;;2.45;;
77838;SDS011;67034;43.226;27.932;2023-12-28T04:49:29;3.67;;;2.50;;
77838;SDS011;67034;43.226;27.932;2023-12-28T04:51:55;5.03;;;3.00;;
77838;SDS011;67034;43.226;27.932;2023-12-28T04:54:21;5.18;;;2.85;;
77838;SDS011;67034;43.226;27.932;2023-12-28T04:56:48;3.78;;;2.40;;
77838;SDS011;67034;43.226;27.932;2023-12-28T04:59:14;6.65;;;3.47;;
77838;SDS011;67034;43.226;27.932;2023-12-28T05:01:40;3.60;;;2.08;;
77838;SDS011;67034;43.226;27.932;2023-12-28T05:04:06;4.45;;;2.85;;
77838;SDS011;67034;43.226;27.932;2023-12-28T05:06:32;4.10;;;2.88;;
77838;SDS011;67034;43.226;27.932;2023-12-28T05:08:57;4.82;;;2.85;;
77838;SDS011;67034;43.226;27.932;2023-12-28T05:11:23;5.28;;;3.50;;
77838;SDS011;67034;43.226;27.932;2023-12-28T05:13:50;3.60;;;2.70;;
77838;SDS011;67034;43.226;27.932;2023-12-28T05:16:16;7.20;;;3.67;;
77838;SDS011;67034;43.226;27.932;2023-12-28T05:21:08;4.82;;;2.88;;
77838;SDS011;67034;43.226;27.932;2023-12-28T05:23:33;4.55;;;3.15;;
77838;SDS011;67034;43.226;27.932;2023-12-28T05:25:59;6.70;;;4.47;;
77838;SDS011;67034;43.226;27.932;2023-12-28T05:28:25;6.50;;;3.30;;
77838;SDS011;67034;43.226;27.932;2023-12-28T05:30:52;5.70;;;3.20;;
77838;SDS011;67034;43.226;27.932;2023-12-28T05:33:17;4.68;;;3.10;;
77838;SDS011;67034;43.226;27.932;2023-12-28T05:35:43;6.72;;;3.08;;
77838;SDS011;67034;43.226;27.932;2023-12-28T05:38:10;5.32;;;3.55;;
77838;SDS011;67034;43.226;27.932;2023-12-28T05:40:36;5.22;;;3.15;;
77838;SDS011;67034;43.226;27.932;2023-12-28T05:43:01;6.80;;;3.47;;
77838;SDS011;67034;43.226;27.932;2023-12-28T05:45:27;6.75;;;3.80;;
77838;SDS011;67034;43.226;27.932;2023-12-28T05:47:55;7.97;;;4.05;;
77838;SDS011;67034;43.226;27.932;2023-12-28T05:50:20;9.15;;;4.20;;
77838;SDS011;67034;43.226;27.932;2023-12-28T05:52:46;5.82;;;3.03;;
77838;SDS011;67034;43.226;27.932;2023-12-28T05:55:12;6.43;;;3.67;;
77838;SDS011;67034;43.226;27.932;2023-12-28T05:57:38;6.13;;;4.03;;
77838;SDS011;67034;43.226;27.932;2023-12-28T06:00:04;4.05;;;3.58;;
77838;SDS011;67034;43.226;27.932;2023-12-28T06:02:31;4.85;;;3.63;;
77838;SDS011;67034;43.226;27.932;2023-12-28T06:04:58;4.93;;;4.22;;
77838;SDS011;67034;43.226;27.932;2023-12-28T06:07:24;4.70;;;3.15;;
77838;SDS011;67034;43.226;27.932;2023-12-28T06:09:51;5.20;;;3.03;;
77838;SDS011;67034;43.226;27.932;2023-12-28T06:12:16;8.57;;;4.32;;
77838;SDS011;67034;43.226;27.932;2023-12-28T06:14:42;6.38;;;3.40;;
77838;SDS011;67034;43.226;27.932;2023-12-28T06:17:08;6.57;;;3.97;;
77838;SDS011;67034;43.226;27.932;2023-12-28T06:19:33;5.68;;;3.97;;
77838;SDS011;67034;43.226;27.932;2023-12-28T06:22:00;3.92;;;3.53;;
77838;SDS011;67034;43.226;27.932;2023-12-28T06:24:26;3.83;;;3.05;;
77838;SDS011;67034;43.226;27.932;2023-12-28T06:26:52;6.05;;;3.80;;
77838;SDS011;67034;43.226;27.932;2023-12-28T06:29:17;7.15;;;4.35;;
77838;SDS011;67034;43.226;27.932;2023-12-28T06:31:43;6.60;;;4.05;;
77838;SDS011;67034;43.226;27.932;2023-12-28T06:36:34;7.95;;;4.63;;
77838;SDS011;67034;43.226;27.932;2023-12-28T06:39:01;6.53;;;3.55;;
77838;SDS011;67034;43.226;27.932;2023-12-28T06:41:27;7.30;;;3.45;;
77838;SDS011;67034;43.226;27.932;2023-12-28T06:43:53;7.97;;;4.22;;
77838;SDS011;67034;43.226;27.932;2023-12-28T06:48:45;11.15;;;5.35;;
77838;SDS011;67034;43.226;27.932;2023-12-28T06:51:15;11.27;;;5.60;;
77838;SDS011;67034;43.226;27.932;2023-12-28T06:53:42;8.65;;;5.45;;
77838;SDS011;67034;43.226;27.932;2023-12-28T06:58:36;9.05;;;3.97;;
77838;SDS011;67034;43.226;27.932;2023-12-28T07:03:28;9.90;;;4.90;;
77838;SDS011;67034;43.226;27.932;2023-12-28T07:05:55;5.82;;;4.38;;
77838;SDS011;67034;43.226;27.932;2023-12-28T07:10:46;6.18;;;4.57;;
77838;SDS011;67034;43.226;27.932;2023-12-28T07:15:39;9.05;;;5.88;;
77838;SDS011;67034;43.226;27.932;2023-12-28T07:18:04;8.60;;;5.38;;
77838;SDS011;67034;43.226;27.932;2023-12-28T07:20:30;9.77;;;4.95;;
77838;SDS011;67034;43.226;27.932;2023-12-28T07:25:22;14.25;;;6.07;;
77838;SDS011;67034;43.226;27.932;2023-12-28T07:27:47;14.65;;;6.05;;
77838;SDS011;67034;43.226;27.932;2023-12-28T07:30:14;12.20;;;5.90;;
77838;SDS011;67034;43.226;27.932;2023-12-28T07:32:41;10.55;;;6.10;;
77838;SDS011;67034;43.226;27.932;2023-12-28T07:35:07;13.06;;;6.30;;
77838;SDS011;67034;43.226;27.932;2023-12-28T07:37:33;15.50;;;6.32;;
77838;SDS011;67034;43.226;27.932;2023-12-28T07:39:59;12.35;;;6.97;;
77838;SDS011;67034;43.226;27.932;2023-12-28T07:42:25;15.15;;;7.32;;
77838;SDS011;67034;43.226;27.932;2023-12-28T07:44:51;14.60;;;6.78;;
77838;SDS011;67034;43.226;27.932;2023-12-28T07:47:18;14.45;;;6.43;;
77838;SDS011;67034;43.226;27.932;2023-12-28T07:49:44;14.07;;;7.07;;
77838;SDS011;67034;43.226;27.932;2023-12-28T07:52:09;14.07;;;7.13;;
77838;SDS011;67034;43.226;27.932;2023-12-28T07:54:35;14.43;;;7.10;;
77838;SDS011;67034;43.226;27.932;2023-12-28T07:57:01;11.30;;;6.47;;
77838;SDS011;67034;43.226;27.932;2023-12-28T07:59:27;9.63;;;6.85;;
77838;SDS011;67034;43.226;27.932;2023-12-28T08:01:53;14.07;;;6.68;;
77838;SDS011;67034;43.226;27.932;2023-12-28T08:04:20;13.68;;;7.38;;
77838;SDS011;67034;43.226;27.932;2023-12-28T08:06:46;11.10;;;7.15;;
77838;SDS011;67034;43.226;27.932;2023-12-28T08:09:11;11.05;;;6.15;;
77838;SDS011;67034;43.226;27.932;2023-12-28T08:11:37;12.23;;;7.45;;
77838;SDS011;67034;43.226;27.932;2023-12-28T08:14:03;13.07;;;7.55;;
77838;SDS011;67034;43.226;27.932;2023-12-28T08:16:30;10.63;;;7.00;;
77838;SDS011;67034;43.226;27.932;2023-12-28T08:18:56;16.75;;;9.77;;
77838;SDS011;67034;43.226;27.932;2023-12-28T08:21:23;18.25;;;11.85;;
77838;SDS011;67034;43.226;27.932;2023-12-28T08:23:49;10.43;;;6.28;;
77838;SDS011;67034;43.226;27.932;2023-12-28T08:26:14;19.20;;;9.60;;
77838;SDS011;67034;43.226;27.932;2023-12-28T08:28:40;15.10;;;9.25;;
77838;SDS011;67034;43.226;27.932;2023-12-28T08:31:06;8.27;;;6.18;;
77838;SDS011;67034;43.226;27.932;2023-12-28T08:33:33;26.05;;;12.07;;
77838;SDS011;67034;43.226;27.932;2023-12-28T08:36:00;9.77;;;6.78;;
77838;SDS011;67034;43.226;27.932;2023-12-28T08:38:29;8.90;;;6.63;;
77838;SDS011;67034;43.226;27.932;2023-12-28T08:40:55;10.50;;;7.25;;
77838;SDS011;67034;43.226;27.932;2023-12-28T08:43:21;11.32;;;6.95;;
77838;SDS011;67034;43.226;27.932;2023-12-28T08:45:46;9.73;;;6.20;;
77838;SDS011;67034;43.226;27.932;2023-12-28T08:48:13;13.38;;;6.88;;
77838;SDS011;67034;43.226;27.932;2023-12-28T08:50:39;11.68;;;6.53;;
77838;SDS011;67034;43.226;27.932;2023-12-28T08:53:05;10.32;;;6.50;;
77838;SDS011;67034;43.226;27.932;2023-12-28T08:55:32;9.77;;;5.87;;
77838;SDS011;67034;43.226;27.932;2023-12-28T08:57:58;16.52;;;7.40;;
77838;SDS011;67034;43.226;27.932;2023-12-28T09:00:24;12.02;;;7.00;;
77838;SDS011;67034;43.226;27.932;2023-12-28T09:02:50;15.93;;;8.10;;
77838;SDS011;67034;43.226;27.932;2023-12-28T09:05:16;22.67;;;10.75;;
77838;SDS011;67034;43.226;27.932;2023-12-28T09:07:42;19.00;;;9.27;;
77838;SDS011;67034;43.226;27.932;2023-12-28T09:10:09;17.73;;;7.24;;
77838;SDS011;67034;43.226;27.932;2023-12-28T09:12:36;10.65;;;6.40;;
77838;SDS011;67034;43.226;27.932;2023-12-28T09:15:03;11.90;;;6.40;;
77838;SDS011;67034;43.226;27.932;2023-12-28T09:17:30;11.25;;;6.25;;
77838;SDS011;67034;43.226;27.932;2023-12-28T09:19:56;15.77;;;9.02;;
77838;SDS011;67034;43.226;27.932;2023-12-28T09:22:23;12.45;;;7.85;;
77838;SDS011;67034;43.226;27.932;2023-12-28T09:24:48;14.70;;;7.30;;
77838;SDS011;67034;43.226;27.932;2023-12-28T09:27:14;9.80;;;6.25;;
77838;SDS011;67034;43.226;27.932;2023-12-28T09:29:41;32.13;;;19.55;;
77838;SDS011;67034;43.226;27.932;2023-12-28T09:32:10;20.92;;;11.63;;
77838;SDS011;67034;43.226;27.932;2023-12-28T09:34:36;20.38;;;11.75;;
77838;SDS011;67034;43.226;27.932;2023-12-28T09:37:01;12.98;;;7.55;;
77838;SDS011;67034;43.226;27.932;2023-12-28T09:39:27;9.65;;;5.80;;
77838;SDS011;67034;43.226;27.932;2023-12-28T09:41:54;9.52;;;6.05;;
77838;SDS011;67034;43.226;27.932;2023-12-28T09:44:23;11.68;;;6.75;;
77838;SDS011;67034;43.226;27.932;2023-12-28T09:46:52;14.65;;;8.75;;
77838;SDS011;67034;43.226;27.932;2023-12-28T09:49:18;13.52;;;7.68;;
77838;SDS011;67034;43.226;27.932;2023-12-28T09:51:46;15.60;;;7.68;;
77838;SDS011;67034;43.226;27.932;2023-12-28T09:54:12;8.10;;;6.20;;
77838;SDS011;67034;43.226;27.932;2023-12-28T09:56:38;13.48;;;7.53;;
77838;SDS011;67034;43.226;27.932;2023-12-28T09:59:05;9.98;;;6.45;;
77838;SDS011;67034;43.226;27.932;2023-12-28T10:01:32;10.15;;;6.85;;
77838;SDS011;67034;43.226;27.932;2023-12-28T10:04:00;9.30;;;6.50;;
77838;SDS011;67034;43.226;27.932;2023-12-28T10:06:28;16.83;;;7.38;;
77838;SDS011;67034;43.226;27.932;2023-12-28T10:08:54;12.15;;;7.20;;
77838;SDS011;67034;43.226;27.932;2023-12-28T10:11:21;14.25;;;7.43;;
77838;SDS011;67034;43.226;27.932;2023-12-28T10:13:48;11.63;;;7.25;;
77838;SDS011;67034;43.226;27.932;2023-12-28T10:16:14;9.13;;;6.53;;
77838;SDS011;67034;43.226;27.932;2023-12-28T10:18:41;12.32;;;7.38;;
77838;SDS011;67034;43.226;27.932;2023-12-28T10:21:09;10.13;;;6.35;;
77838;SDS011;67034;43.226;27.932;2023-12-28T10:23:35;9.90;;;5.93;;
77838;SDS011;67034;43.226;27.932;2023-12-28T10:26:01;19.98;;;7.15;;
77838;SDS011;67034;43.226;27.932;2023-12-28T10:28:30;14.00;;;6.10;;
77838;SDS011;67034;43.226;27.932;2023-12-28T10:30:56;11.30;;;6.72;;
77838;SDS011;67034;43.226;27.932;2023-12-28T10:33:22;12.05;;;7.72;;
77838;SDS011;67034;43.226;27.932;2023-12-28T10:35:48;9.82;;;6.60;;
77838;SDS011;67034;43.226;27.932;2023-12-28T10:38:17;8.13;;;5.90;;
77838;SDS011;67034;43.226;27.932;2023-12-28T10:40:43;12.52;;;6.45;;
77838;SDS011;67034;43.226;27.932;2023-12-28T10:43:11;11.52;;;6.45;;
77838;SDS011;67034;43.226;27.932;2023-12-28T10:45:39;10.25;;;6.25;;
77838;SDS011;67034;43.226;27.932;2023-12-28T10:48:07;10.00;;;5.50;;
77838;SDS011;67034;43.226;27.932;2023-12-28T10:50:36;8.98;;;5.70;;
77838;SDS011;67034;43.226;27.932;2023-12-28T10:53:08;20.10;;;8.52;;
77838;SDS011;67034;43.226;27.932;2023-12-28T10:55:44;14.35;;;7.45;;
77838;SDS011;67034;43.226;27.932;2023-12-28T10:58:17;21.15;;;11.55;;
77838;SDS011;67034;43.226;27.932;2023-12-28T11:00:50;14.63;;;7.35;;
77838;SDS011;67034;43.226;27.932;2023-12-28T11:03:23;15.60;;;7.05;;
77838;SDS011;67034;43.226;27.932;2023-12-28T11:05:53;8.40;;;6.38;;
77838;SDS011;67034;43.226;27.932;2023-12-28T11:08:20;11.00;;;5.90;;
77838;SDS011;67034;43.226;27.932;2023-12-28T11:10:48;32.13;;;7.97;;
77838;SDS011;67034;43.226;27.932;2023-12-28T11:13:17;13.27;;;7.25;;
77838;SDS011;67034;43.226;27.932;2023-12-28T11:15:45;15.63;;;6.60;;
77838;SDS011;67034;43.226;27.932;2023-12-28T11:18:12;13.48;;;8.05;;
77838;SDS011;67034;43.226;27.932;2023-12-28T11:20:40;10.02;;;6.10;;
77838;SDS011;67034;43.226;27.932;2023-12-28T11:23:06;11.18;;;6.43;;
77838;SDS011;67034;43.226;27.932;2023-12-28T11:25:33;10.27;;;5.68;;
77838;SDS011;67034;43.226;27.932;2023-12-28T11:28:07;9.07;;;5.93;;
77838;SDS011;67034;43.226;27.932;2023-12-28T11:30:35;11.05;;;5.85;;
77838;SDS011;67034;43.226;27.932;2023-12-28T11:33:01;8.60;;;5.10;;
77838;SDS011;67034;43.226;27.932;2023-12-28T11:35:33;15.98;;;6.82;;
77838;SDS011;67034;43.226;27.932;2023-12-28T11:38:00;14.40;;;5.88;;
77838;SDS011;67034;43.226;27.932;2023-12-28T11:40:31;11.60;;;5.65;;
77838;SDS011;67034;43.226;27.932;2023-12-28T11:43:05;12.55;;;6.40;;
77838;SDS011;67034;43.226;27.932;2023-12-28T11:45:41;19.88;;;7.07;;
77838;SDS011;67034;43.226;27.932;2023-12-28T11:48:21;15.75;;;7.07;;
77838;SDS011;67034;43.226;27.932;2023-12-28T11:50:48;17.05;;;8.57;;
77838;SDS011;67034;43.226;27.932;2023-12-28T11:53:15;18.15;;;6.65;;
77838;SDS011;67034;43.226;27.932;2023-12-28T11:55:41;11.90;;;6.80;;
77838;SDS011;67034;43.226;27.932;2023-12-28T11:58:09;8.02;;;5.03;;
77838;SDS011;67034;43.226;27.932;2023-12-28T12:00:34;16.75;;;6.78;;
77838;SDS011;67034;43.226;27.932;2023-12-28T12:03:00;19.15;;;7.47;;
77838;SDS011;67034;43.226;27.932;2023-12-28T12:05:27;11.82;;;7.32;;
77838;SDS011;67034;43.226;27.932;2023-12-28T12:07:53;8.80;;;5.53;;
77838;SDS011;67034;43.226;27.932;2023-12-28T12:10:19;15.57;;;6.85;;
77838;SDS011;67034;43.226;27.932;2023-12-28T12:12:46;12.27;;;6.55;;
77838;SDS011;67034;43.226;27.932;2023-12-28T12:15:14;11.20;;;6.68;;
77838;SDS011;67034;43.226;27.932;2023-12-28T12:17:39;7.53;;;4.55;;
77838;SDS011;67034;43.226;27.932;2023-12-28T12:20:05;6.93;;;4.57;;
77838;SDS011;67034;43.226;27.932;2023-12-28T12:22:34;10.18;;;4.28;;
77838;SDS011;67034;43.226;27.932;2023-12-28T12:24:59;11.63;;;5.32;;
77838;SDS011;67034;43.226;27.932;2023-12-28T12:29:57;13.15;;;5.80;;
77838;SDS011;67034;43.226;27.932;2023-12-28T12:32:24;10.40;;;5.80;;
77838;SDS011;67034;43.226;27.932;2023-12-28T12:34:50;8.45;;;5.43;;
77838;SDS011;67034;43.226;27.932;2023-12-28T12:37:16;9.15;;;4.75;;
77838;SDS011;67034;43.226;27.932;2023-12-28T12:39:42;9.57;;;5.32;;
77838;SDS011;67034;43.226;27.932;2023-12-28T12:42:11;9.55;;;4.80;;
77838;SDS011;67034;43.226;27.932;2023-12-28T12:44:37;8.57;;;5.22;;
77838;SDS011;67034;43.226;27.932;2023-12-28T12:47:03;8.20;;;5.53;;
77838;SDS011;67034;43.226;27.932;2023-12-28T12:49:30;9.15;;;5.10;;
77838;SDS011;67034;43.226;27.932;2023-12-28T12:51:56;10.13;;;5.60;;
77838;SDS011;67034;43.226;27.932;2023-12-28T12:54:22;8.25;;;5.18;;
77838;SDS011;67034;43.226;27.932;2023-12-28T12:56:49;9.35;;;5.47;;
77838;SDS011;67034;43.226;27.932;2023-12-28T12:59:15;9.13;;;4.78;;
77838;SDS011;67034;43.226;27.932;2023-12-28T13:01:42;7.75;;;4.80;;
77838;SDS011;67034;43.226;27.932;2023-12-28T13:04:08;6.38;;;4.57;;
77838;SDS011;67034;43.226;27.932;2023-12-28T13:06:36;6.38;;;4.38;;
77838;SDS011;67034;43.226;27.932;2023-12-28T13:09:02;6.25;;;4.70;;
77838;SDS011;67034;43.226;27.932;2023-12-28T13:11:28;6.17;;;4.50;;
77838;SDS011;67034;43.226;27.932;2023-12-28T13:13:54;8.25;;;4.57;;
77838;SDS011;67034;43.226;27.932;2023-12-28T13:16:19;6.82;;;4.68;;
77838;SDS011;67034;43.226;27.932;2023-12-28T13:18:45;6.38;;;4.18;;
77838;SDS011;67034;43.226;27.932;2023-12-28T13:21:11;5.65;;;4.13;;
77838;SDS011;67034;43.226;27.932;2023-12-28T13:23:39;8.82;;;5.20;;
77838;SDS011;67034;43.226;27.932;2023-12-28T13:26:05;6.40;;;4.53;;
77838;SDS011;67034;43.226;27.932;2023-12-28T13:28:32;7.25;;;4.43;;
77838;SDS011;67034;43.226;27.932;2023-12-28T13:30:58;9.77;;;6.13;;
77838;SDS011;67034;43.226;27.932;2023-12-28T13:33:23;7.82;;;4.35;;
77838;SDS011;67034;43.226;27.932;2023-12-28T13:35:49;8.77;;;4.90;;
77838;SDS011;67034;43.226;27.932;2023-12-28T13:38:15;7.45;;;5.38;;
77838;SDS011;67034;43.226;27.932;2023-12-28T13:40:43;6.35;;;4.80;;
77838;SDS011;67034;43.226;27.932;2023-12-28T13:43:08;10.50;;;5.55;;
77838;SDS011;67034;43.226;27.932;2023-12-28T13:45:35;10.40;;;5.90;;
77838;SDS011;67034;43.226;27.932;2023-12-28T13:48:01;7.63;;;4.80;;
77838;SDS011;67034;43.226;27.932;2023-12-28T13:50:27;12.88;;;4.80;;
77838;SDS011;67034;43.226;27.932;2023-12-28T13:52:53;9.07;;;4.38;;
77838;SDS011;67034;43.226;27.932;2023-12-28T13:55:19;9.07;;;4.63;;
77838;SDS011;67034;43.226;27.932;2023-12-28T13:57:46;8.18;;;4.65;;
77838;SDS011;67034;43.226;27.932;2023-12-28T14:00:12;17.35;;;7.25;;
77838;SDS011;67034;43.226;27.932;2023-12-28T14:02:39;6.70;;;4.35;;
77838;SDS011;67034;43.226;27.932;2023-12-28T14:05:05;9.35;;;4.90;;
77838;SDS011;67034;43.226;27.932;2023-12-28T14:07:31;8.93;;;5.60;;
77838;SDS011;67034;43.226;27.932;2023-12-28T14:09:58;11.27;;;5.43;;
77838;SDS011;67034;43.226;27.932;2023-12-28T14:12:23;8.25;;;4.80;;
77838;SDS011;67034;43.226;27.932;2023-12-28T14:14:51;11.55;;;6.30;;
77838;SDS011;67034;43.226;27.932;2023-12-28T14:17:16;9.93;;;5.35;;
77838;SDS011;67034;43.226;27.932;2023-12-28T14:19:44;9.88;;;5.15;;
77838;SDS011;67034;43.226;27.932;2023-12-28T14:22:11;8.52;;;5.45;;
77838;SDS011;67034;43.226;27.932;2023-12-28T14:24:37;8.95;;;5.65;;
77838;SDS011;67034;43.226;27.932;2023-12-28T14:27:03;8.25;;;4.90;;
77838;SDS011;67034;43.226;27.932;2023-12-28T14:29:30;15.43;;;5.45;;
77838;SDS011;67034;43.226;27.932;2023-12-28T14:31:58;8.75;;;5.45;;
77838;SDS011;67034;43.226;27.932;2023-12-28T14:34:24;6.47;;;4.15;;
77838;SDS011;67034;43.226;27.932;2023-12-28T14:36:52;8.35;;;4.82;;
77838;SDS011;67034;43.226;27.932;2023-12-28T14:39:18;10.70;;;4.90;;
77838;SDS011;67034;43.226;27.932;2023-12-28T14:41:44;9.93;;;6.05;;
77838;SDS011;67034;43.226;27.932;2023-12-28T14:44:10;13.85;;;5.80;;
77838;SDS011;67034;43.226;27.932;2023-12-28T14:46:36;9.15;;;5.43;;
77838;SDS011;67034;43.226;27.932;2023-12-28T14:49:03;11.05;;;5.47;;
77838;SDS011;67034;43.226;27.932;2023-12-28T14:51:29;14.15;;;5.63;;
77838;SDS011;67034;43.226;27.932;2023-12-28T14:53:56;12.40;;;7.00;;
77838;SDS011;67034;43.226;27.932;2023-12-28T14:56:21;12.10;;;8.90;;
77838;SDS011;67034;43.226;27.932;2023-12-28T14:58:47;12.63;;;8.13;;
77838;SDS011;67034;43.226;27.932;2023-12-28T15:01:13;12.98;;;8.52;;
77838;SDS011;67034;43.226;27.932;2023-12-28T15:03:39;14.15;;;9.18;;
77838;SDS011;67034;43.226;27.932;2023-12-28T15:06:07;15.65;;;11.15;;
77838;SDS011;67034;43.226;27.932;2023-12-28T15:08:32;18.38;;;9.85;;
77838;SDS011;67034;43.226;27.932;2023-12-28T15:10:58;20.98;;;12.23;;
77838;SDS011;67034;43.226;27.932;2023-12-28T15:13:25;30.02;;;14.30;;
77838;SDS011;67034;43.226;27.932;2023-12-28T15:15:51;28.40;;;15.18;;
77838;SDS011;67034;43.226;27.932;2023-12-28T15:18:18;26.67;;;13.27;;
77838;SDS011;67034;43.226;27.932;2023-12-28T15:20:44;20.70;;;10.95;;
77838;SDS011;67034;43.226;27.932;2023-12-28T15:23:12;23.88;;;13.60;;
77838;SDS011;67034;43.226;27.932;2023-12-28T15:25:39;19.20;;;12.77;;
77838;SDS011;67034;43.226;27.932;2023-12-28T15:28:05;15.18;;;10.27;;
77838;SDS011;67034;43.226;27.932;2023-12-28T15:30:30;13.07;;;8.65;;